Time,TemperatureF,DewpointF,PressureIn,WindDirection,WindDirectionDegrees,WindSpeedMPH,WindSpeedGustMPH,Humidity,HourlyPrecipIn,Conditions,Clouds,dailyrainin,SoftwareType,DateUTC
2013-04-04 00:00:00,45.6,43.7,30.72,NNE,28,1.0,7.0,93,-0.65,,,0.00,Weather View 32 v70,2013-04-04 05:00:00,
2013-04-04 00:05:00,45.6,43.7,30.71,NE,51,1.0,7.0,93,-0.65,,,0.00,Weather View 32 v70,2013-04-04 05:05:00,
2013-04-04 00:10:00,45.5,43.6,30.71,ENE,73,4.0,7.0,93,-0.65,,,0.00,Weather View 32 v70,2013-04-04 05:10:00,
2013-04-04 00:30:00,45.3,43.7,30.71,NNE,28,4.0,6.0,94,-0.64,,,0.01,Weather View 32 v70,2013-04-04 05:30:00,
2013-04-04 00:35:00,45.2,43.6,30.71,NNE,28,3.0,6.0,94,-0.63,,,0.02,Weather View 32 v70,2013-04-04 05:35:00,
2013-04-04 00:40:00,45.1,43.5,30.71,NNE,28,3.0,6.0,94,-0.62,,,0.03,Weather View 32 v70,2013-04-04 05:40:00,
2013-04-04 00:45:00,45.2,43.8,30.71,NNE,28,1.0,6.0,95,-0.62,,,0.03,Weather View 32 v70,2013-04-04 05:45:00,
2013-04-04 00:50:00,45.2,43.8,30.70,NNE,28,1.0,6.0,95,-0.61,,,0.04,Weather View 32 v70,2013-04-04 05:50:00,
2013-04-04 00:55:00,44.2,42.6,30.70,NE,51,3.0,6.0,94,-0.61,,,0.04,Weather View 32 v70,2013-04-04 05:55:00,
2013-04-04 01:00:00,43.5,41.0,30.70,ENE,73,7.0,11.0,91,0.04,,,0.04,Weather View 32 v70,2013-04-04 06:00:00,
2013-04-04 01:05:00,43.5,41.0,30.70,NNE,28,3.0,12.0,91,0.04,,,0.04,Weather View 32 v70,2013-04-04 06:05:00,
2013-04-04 01:10:00,43.4,41.2,30.70,NE,51,5.0,12.0,92,0.04,,,0.04,Weather View 32 v70,2013-04-04 06:10:00,
2013-04-04 01:31:00,42.9,40.7,30.70,ENE,73,8.0,12.0,92,0.03,,,0.04,Weather View 32 v70,2013-04-04 06:31:00,
2013-04-04 01:36:00,42.7,40.5,30.70,NE,51,3.0,12.0,92,0.02,,,0.04,Weather View 32 v70,2013-04-04 06:36:00,
2013-04-04 01:41:00,42.7,40.5,30.70,NNE,28,4.0,12.0,92,0.01,,,0.04,Weather View 32 v70,2013-04-04 06:41:00,
2013-04-04 01:46:00,42.7,40.5,30.70,NNE,28,3.0,12.0,92,0.01,,,0.04,Weather View 32 v70,2013-04-04 06:46:00,
2013-04-04 01:51:00,42.7,40.8,30.69,NNE,28,3.0,12.0,93,0.00,,,0.04,Weather View 32 v70,2013-04-04 06:51:00,
2013-04-04 01:56:00,42.6,41.0,30.69,NNE,28,6.0,12.0,94,0.00,,,0.04,Weather View 32 v70,2013-04-04 06:56:00,
2013-04-04 02:01:00,42.6,41.0,30.69,NNE,28,5.0,12.0,94,0.00,,,0.04,Weather View 32 v70,2013-04-04 07:01:00,
2013-04-04 02:06:00,42.4,40.8,30.69,NNE,28,5.0,10.0,94,0.00,,,0.04,Weather View 32 v70,2013-04-04 07:06:00,
2013-04-04 02:11:00,42.5,41.2,30.69,North,6,3.0,10.0,95,0.00,,,0.04,Weather View 32 v70,2013-04-04 07:11:00,
2013-04-04 02:16:00,42.4,41.1,30.69,NNE,28,5.0,10.0,95,0.00,,,0.04,Weather View 32 v70,2013-04-04 07:16:00,
2013-04-04 02:21:00,42.3,41.0,30.69,NNE,28,5.0,10.0,95,-0.04,,,0.04,Weather View 32 v70,2013-04-04 07:21:00,
2013-04-04 02:26:00,42.2,40.9,30.69,NNE,28,5.0,10.0,95,0.00,,,0.04,Weather View 32 v70,2013-04-04 07:26:00,
2013-04-04 02:31:00,42.2,40.6,30.69,North,6,5.0,10.0,94,0.00,,,0.04,Weather View 32 v70,2013-04-04 07:31:00,
2013-04-04 02:36:00,42.1,40.2,30.69,NNE,28,4.0,8.0,93,0.00,,,0.04,Weather View 32 v70,2013-04-04 07:36:00,
2013-04-04 02:41:00,42.2,40.6,30.69,NNW,343,4.0,8.0,94,0.00,,,0.04,Weather View 32 v70,2013-04-04 07:41:00,
2013-04-04 02:46:00,42.3,41.0,30.69,North,6,4.0,8.0,95,0.00,,,0.04,Weather View 32 v70,2013-04-04 07:46:00,
2013-04-04 03:01:00,42.0,40.4,30.69,NNE,28,3.0,8.0,94,0.00,,,0.04,Weather View 32 v70,2013-04-04 08:01:00,
2013-04-04 03:07:00,41.9,40.3,30.69,NE,51,4.0,8.0,94,0.00,,,0.04,Weather View 32 v70,2013-04-04 08:07:00,
2013-04-04 03:12:00,42.0,40.7,30.69,North,6,5.0,8.0,95,0.00,,,0.04,Weather View 32 v70,2013-04-04 08:12:00,
2013-04-04 03:17:00,41.8,40.5,30.68,NNE,28,5.0,8.0,95,0.00,,,0.04,Weather View 32 v70,2013-04-04 08:17:00,
2013-04-04 03:22:00,41.8,40.5,30.68,North,6,4.0,8.0,95,0.00,,,0.04,Weather View 32 v70,2013-04-04 08:22:00,
2013-04-04 03:27:00,41.7,40.4,30.69,North,6,5.0,8.0,95,0.00,,,0.04,Weather View 32 v70,2013-04-04 08:27:00,
2013-04-04 03:32:00,41.7,40.4,30.68,North,6,6.0,8.0,95,0.00,,,0.04,Weather View 32 v70,2013-04-04 08:32:00,
2013-04-04 03:37:00,41.8,40.5,30.68,NE,51,5.0,8.0,95,0.00,,,0.04,Weather View 32 v70,2013-04-04 08:37:00,
2013-04-04 04:02:00,41.6,40.3,30.67,NNE,28,6.0,9.0,95,0.00,,,0.04,Weather View 32 v70,2013-04-04 09:02:00,
2013-04-04 04:07:00,41.5,39.9,30.67,North,6,6.0,9.0,94,0.00,,,0.04,Weather View 32 v70,2013-04-04 09:07:00,
2013-04-04 04:32:00,41.9,40.3,30.67,North,6,5.0,9.0,94,0.00,,,0.04,Weather View 32 v70,2013-04-04 09:32:00,
2013-04-04 04:37:00,42.0,40.4,30.67,NNE,28,3.0,9.0,94,0.00,,,0.04,Weather View 32 v70,2013-04-04 09:37:00,
2013-04-04 04:42:00,41.9,40.3,30.67,NNE,28,4.0,9.0,94,0.00,,,0.04,Weather View 32 v70,2013-04-04 09:42:00,
2013-04-04 04:47:00,42.0,40.4,30.67,North,6,4.0,9.0,94,0.00,,,0.04,Weather View 32 v70,2013-04-04 09:47:00,
2013-04-04 04:52:00,42.0,40.4,30.67,North,6,4.0,9.0,94,0.00,,,0.04,Weather View 32 v70,2013-04-04 09:52:00,
2013-04-04 04:57:00,42.0,40.4,30.67,NNE,28,7.0,9.0,94,0.00,,,0.04,Weather View 32 v70,2013-04-04 09:57:00,
2013-04-04 05:02:00,41.9,40.3,30.67,North,6,6.0,8.0,94,0.00,,,0.04,Weather View 32 v70,2013-04-04 10:02:00,
2013-04-04 05:07:00,41.9,40.3,30.67,NNE,28,4.0,8.0,94,0.00,,,0.04,Weather View 32 v70,2013-04-04 10:07:00,
2013-04-04 05:12:00,41.9,40.0,30.67,North,6,6.0,10.0,93,0.00,,,0.04,Weather View 32 v70,2013-04-04 10:12:00,
2013-04-04 05:17:00,41.9,40.0,30.67,NNE,28,8.0,10.0,93,0.00,,,0.04,Weather View 32 v70,2013-04-04 10:17:00,
2013-04-04 05:22:00,41.9,40.0,30.68,NE,51,4.0,10.0,93,0.00,,,0.04,Weather View 32 v70,2013-04-04 10:22:00,
2013-04-04 05:32:00,41.9,40.0,30.68,North,6,5.0,10.0,93,0.00,,,0.04,Weather View 32 v70,2013-04-04 10:32:00,
2013-04-04 05:37:00,41.7,39.5,30.67,NNE,28,4.0,10.0,92,0.00,,,0.04,Weather View 32 v70,2013-04-04 10:37:00,
2013-04-04 06:02:00,41.7,39.8,30.68,NNE,28,5.0,10.0,93,0.00,,,0.04,Weather View 32 v70,2013-04-04 11:02:00,
2013-04-04 06:07:00,41.7,39.8,30.68,NNE,28,4.0,10.0,93,0.00,,,0.04,Weather View 32 v70,2013-04-04 11:07:00,
2013-04-04 06:32:00,41.8,39.6,30.68,North,6,5.0,10.0,92,0.00,,,0.04,Weather View 32 v70,2013-04-04 11:32:00,
2013-04-04 06:37:00,41.9,40.0,30.68,NNE,28,4.0,10.0,93,0.00,,,0.04,Weather View 32 v70,2013-04-04 11:37:00,
2013-04-04 06:42:00,41.9,40.0,30.69,NNE,28,5.0,10.0,93,0.00,,,0.04,Weather View 32 v70,2013-04-04 11:42:00,
2013-04-04 06:47:00,41.9,40.0,30.69,NNE,28,3.0,10.0,93,0.00,,,0.04,Weather View 32 v70,2013-04-04 11:47:00,
2013-04-04 06:53:00,41.8,39.9,30.69,NNE,28,5.0,10.0,93,0.00,,,0.04,Weather View 32 v70,2013-04-04 11:53:00,
2013-04-04 07:03:00,41.9,40.0,30.69,NE,51,3.0,10.0,93,0.29,,,0.04,Weather View 32 v70,2013-04-04 12:03:00,
2013-04-04 07:08:00,41.9,40.0,30.69,NNE,28,3.0,10.0,93,0.00,,,0.04,Weather View 32 v70,2013-04-04 12:08:00,
2013-04-04 07:13:00,41.8,40.2,30.69,North,6,3.0,10.0,94,0.00,,,0.04,Weather View 32 v70,2013-04-04 12:13:00,
2013-04-04 07:18:00,41.9,40.6,30.69,NNW,343,3.0,10.0,95,0.00,,,0.04,Weather View 32 v70,2013-04-04 12:18:00,
2013-04-04 07:23:00,42.0,40.7,30.69,North,6,3.0,10.0,95,0.00,,,0.04,Weather View 32 v70,2013-04-04 12:23:00,
2013-04-04 07:28:00,41.9,40.8,30.70,North,6,6.0,10.0,96,0.00,,,0.04,Weather View 32 v70,2013-04-04 12:28:00,
2013-04-04 07:33:00,42.0,40.9,30.70,NNE,28,5.0,10.0,96,0.00,,,0.04,Weather View 32 v70,2013-04-04 12:33:00,
2013-04-04 07:38:00,42.1,41.0,30.70,NNW,343,9.0,9.0,96,0.00,,,0.04,Weather View 32 v70,2013-04-04 12:38:00,
2013-04-04 07:43:00,42.3,41.2,30.70,North,6,7.0,10.0,96,0.00,,,0.04,Weather View 32 v70,2013-04-04 12:43:00,
2013-04-04 07:48:00,42.3,41.0,30.69,NNW,343,7.0,11.0,95,0.00,,,0.04,Weather View 32 v70,2013-04-04 12:48:00,
2013-04-04 07:53:00,42.3,41.0,30.70,North,6,5.0,11.0,95,0.00,,,0.04,Weather View 32 v70,2013-04-04 12:53:00,
2013-04-04 07:58:00,42.2,40.3,30.70,North,6,8.0,11.0,93,0.00,,,0.04,Weather View 32 v70,2013-04-04 12:58:00,
2013-04-04 08:33:00,42.6,40.4,30.70,NNW,343,6.0,14.0,92,0.00,,,0.04,Weather View 32 v70,2013-04-04 13:33:00,
2013-04-04 08:38:00,42.6,40.2,30.70,NNW,343,5.0,14.0,91,0.00,,,0.04,Weather View 32 v70,2013-04-04 13:38:00,
2013-04-04 09:03:00,42.7,40.3,30.71,North,6,5.0,14.0,91,0.00,,,0.04,Weather View 32 v70,2013-04-04 14:03:00,
2013-04-04 09:09:00,42.7,40.0,30.71,NNW,343,5.0,14.0,90,0.00,,,0.04,Weather View 32 v70,2013-04-04 14:09:00,
2013-04-04 09:14:00,42.8,40.4,30.71,NNW,343,5.0,13.0,91,0.00,,,0.04,Weather View 32 v70,2013-04-04 14:14:00,
2013-04-04 09:34:00,43.0,40.8,30.72,NNW,343,3.0,13.0,92,0.00,,,0.04,Weather View 32 v70,2013-04-04 14:34:00,
2013-04-04 10:04:00,43.3,40.0,30.73,NW,321,7.0,13.0,88,0.00,,,0.04,Weather View 32 v70,2013-04-04 15:04:00,
2013-04-04 10:09:00,43.2,39.6,30.73,NW,321,7.0,13.0,87,0.00,,,0.04,Weather View 32 v70,2013-04-04 15:09:00,
2013-04-04 10:14:00,43.4,40.1,30.73,NW,321,10.0,13.0,88,0.00,,,0.04,Weather View 32 v70,2013-04-04 15:14:00,
2013-04-04 10:19:00,43.3,40.3,30.73,NNW,343,6.0,13.0,89,0.00,,,0.04,Weather View 32 v70,2013-04-04 15:19:00,
2013-04-04 10:34:00,43.1,40.1,30.74,NNW,343,10.0,13.0,89,0.00,,,0.04,Weather View 32 v70,2013-04-04 15:34:00,
2013-04-04 11:04:00,43.6,41.7,30.75,NNW,343,6.0,14.0,93,0.00,,,0.04,Weather View 32 v70,2013-04-04 16:04:00,
2013-04-04 11:09:00,43.4,40.7,30.75,NW,321,8.0,14.0,90,0.00,,,0.04,Weather View 32 v70,2013-04-04 16:09:00,
2013-04-04 11:34:00,43.3,40.6,30.76,NW,321,12.0,14.0,90,0.00,,,0.04,Weather View 32 v70,2013-04-04 16:34:00,
2013-04-04 11:39:00,43.3,40.8,30.76,North,6,6.0,16.0,91,0.00,,,0.04,Weather View 32 v70,2013-04-04 16:39:00,
2013-04-04 11:44:00,43.3,40.8,30.76,NNW,343,11.0,16.0,91,0.00,,,0.04,Weather View 32 v70,2013-04-04 16:44:00,
2013-04-04 11:49:00,43.5,41.3,30.77,NW,321,8.0,16.0,92,0.00,,,0.04,Weather View 32 v70,2013-04-04 16:49:00,
2013-04-04 11:55:00,43.4,40.7,30.76,WNW,298,5.0,16.0,90,0.00,,,0.04,Weather View 32 v70,2013-04-04 16:55:00,
2013-04-04 12:00:00,43.2,40.5,30.76,NW,321,11.0,16.0,90,0.00,,,0.04,Weather View 32 v70,2013-04-04 17:00:00,
2013-04-04 12:05:00,43.4,40.7,30.76,NW,321,6.0,16.0,90,0.00,,,0.04,Weather View 32 v70,2013-04-04 17:05:00,
2013-04-04 12:10:00,43.5,41.0,30.76,NW,321,9.0,16.0,91,0.00,,,0.04,Weather View 32 v70,2013-04-04 17:10:00,
2013-04-04 12:15:00,43.5,40.5,30.76,WNW,298,8.0,16.0,89,0.00,,,0.04,Weather View 32 v70,2013-04-04 17:15:00,
2013-04-04 12:20:00,43.9,40.6,30.76,NW,321,10.0,16.0,88,0.00,,,0.04,Weather View 32 v70,2013-04-04 17:20:00,
2013-04-04 12:25:00,44.2,41.2,30.76,NW,321,9.0,16.0,89,0.00,,,0.04,Weather View 32 v70,2013-04-04 17:25:00,
2013-04-04 12:30:00,43.9,40.3,30.76,NW,321,11.0,16.0,87,0.00,,,0.04,Weather View 32 v70,2013-04-04 17:30:00,
2013-04-04 12:35:00,44.0,40.7,30.76,NW,321,11.0,16.0,88,0.00,,,0.04,Weather View 32 v70,2013-04-04 17:35:00,
2013-04-04 13:05:00,44.3,41.0,30.75,NW,321,8.0,16.0,88,0.00,,,0.04,Weather View 32 v70,2013-04-04 18:05:00,
2013-04-04 13:10:00,44.3,40.1,30.75,NW,321,11.0,16.0,85,0.00,,,0.04,Weather View 32 v70,2013-04-04 18:10:00,
2013-04-04 13:35:00,44.8,40.6,30.74,NW,321,15.0,18.0,85,0.00,,,0.04,Weather View 32 v70,2013-04-04 18:35:00,
2013-04-04 13:40:00,44.8,40.6,30.74,NW,321,10.0,18.0,85,0.00,,,0.04,Weather View 32 v70,2013-04-04 18:40:00,
2013-04-04 13:45:00,44.7,40.5,30.73,NW,321,10.0,18.0,85,0.00,,,0.04,Weather View 32 v70,2013-04-04 18:45:00,
2013-04-04 13:50:00,44.5,40.6,30.73,NW,321,10.0,18.0,86,0.00,,,0.04,Weather View 32 v70,2013-04-04 18:50:00,
2013-04-04 13:55:00,44.5,40.6,30.73,NNW,343,10.0,18.0,86,0.00,,,0.04,Weather View 32 v70,2013-04-04 18:55:00,
2013-04-04 14:00:00,44.8,40.9,30.73,NW,321,14.0,18.0,86,0.00,,,0.04,Weather View 32 v70,2013-04-04 19:00:00,
2013-04-04 14:05:00,45.1,41.5,30.73,NNW,343,8.0,18.0,87,0.00,,,0.04,Weather View 32 v70,2013-04-04 19:05:00,
2013-04-04 14:10:00,45.0,41.1,30.73,NW,321,8.0,19.0,86,0.00,,,0.04,Weather View 32 v70,2013-04-04 19:10:00,
2013-04-04 14:15:00,45.3,41.0,30.73,NW,321,11.0,19.0,85,0.00,,,0.04,Weather View 32 v70,2013-04-04 19:15:00,
2013-04-04 14:20:00,45.8,41.5,30.72,NW,321,9.0,19.0,85,0.00,,,0.04,Weather View 32 v70,2013-04-04 19:20:00,
2013-04-04 14:25:00,45.9,41.0,30.72,NNW,343,6.0,19.0,83,0.00,,,0.04,Weather View 32 v70,2013-04-04 19:25:00,
2013-04-04 14:30:00,45.6,41.0,30.72,NW,321,8.0,19.0,84,0.00,,,0.04,Weather View 32 v70,2013-04-04 19:30:00,
2013-04-04 14:35:00,45.7,41.1,30.72,WNW,298,8.0,19.0,84,0.00,,,0.04,Weather View 32 v70,2013-04-04 19:35:00,
2013-04-04 14:40:00,45.9,41.0,30.72,NW,321,11.0,19.0,83,0.00,,,0.04,Weather View 32 v70,2013-04-04 19:40:00,
2013-04-04 14:45:00,45.8,40.9,30.71,NNW,343,11.0,19.0,83,0.00,,,0.04,Weather View 32 v70,2013-04-04 19:45:00,
2013-04-04 14:50:00,45.8,41.2,30.72,NW,321,11.0,19.0,84,0.00,,,0.04,Weather View 32 v70,2013-04-04 19:50:00,
2013-04-04 14:55:00,45.7,40.5,30.71,NW,321,14.0,19.0,82,0.00,,,0.04,Weather View 32 v70,2013-04-04 19:55:00,
2013-04-04 15:00:00,45.8,40.6,30.71,NNW,343,11.0,19.0,82,0.00,,,0.04,Weather View 32 v70,2013-04-04 20:00:00,
2013-04-04 15:06:00,46.0,40.5,30.71,NW,321,10.0,19.0,81,0.00,,,0.04,Weather View 32 v70,2013-04-04 20:06:00,
2013-04-04 15:11:00,46.3,41.1,30.71,NNW,343,8.0,19.0,82,0.00,,,0.04,Weather View 32 v70,2013-04-04 20:11:00,
2013-04-04 15:16:00,46.4,40.9,30.71,North,6,8.0,19.0,81,0.00,,,0.04,Weather View 32 v70,2013-04-04 20:16:00,
2013-04-04 15:21:00,46.4,40.9,30.71,NNW,343,8.0,19.0,81,0.00,,,0.04,Weather View 32 v70,2013-04-04 20:21:00,
2013-04-04 15:26:00,46.5,41.0,30.71,NNW,343,8.0,19.0,81,0.00,,,0.04,Weather View 32 v70,2013-04-04 20:26:00,
2013-04-04 15:31:00,46.7,40.5,30.70,NNW,343,10.0,19.0,79,0.00,,,0.04,Weather View 32 v70,2013-04-04 20:31:00,
2013-04-04 15:36:00,47.6,41.7,30.70,North,6,7.0,19.0,80,0.00,,,0.04,Weather View 32 v70,2013-04-04 20:36:00,
2013-04-04 15:41:00,47.8,41.3,30.70,NNW,343,11.0,19.0,78,0.00,,,0.04,Weather View 32 v70,2013-04-04 20:41:00,
2013-04-04 15:47:00,47.7,41.2,30.70,NW,321,10.0,19.0,78,0.00,,,0.04,Weather View 32 v70,2013-04-04 20:47:00,
2013-04-04 16:06:00,47.9,41.4,30.70,NNW,343,10.0,16.0,78,0.00,,,0.04,Weather View 32 v70,2013-04-04 21:06:00,
2013-04-04 16:11:00,48.1,41.9,30.70,North,6,8.0,16.0,79,0.00,,,0.04,Weather View 32 v70,2013-04-04 21:11:00,
2013-04-04 16:16:00,47.9,41.4,30.70,NNW,343,9.0,16.0,78,0.00,,,0.04,Weather View 32 v70,2013-04-04 21:16:00,
2013-04-04 16:22:00,48.0,41.8,30.69,North,6,11.0,16.0,79,0.00,,,0.04,Weather View 32 v70,2013-04-04 21:22:00,
2013-04-04 16:27:00,48.3,41.4,30.70,North,6,6.0,16.0,77,0.00,,,0.04,Weather View 32 v70,2013-04-04 21:27:00,
2013-04-04 16:36:00,49.0,42.1,30.69,North,6,10.0,16.0,77,0.00,,,0.04,Weather View 32 v70,2013-04-04 21:36:00,
2013-04-04 16:41:00,49.2,41.9,30.69,NW,321,10.0,16.0,76,0.00,,,0.04,Weather View 32 v70,2013-04-04 21:41:00,
2013-04-04 17:06:00,48.7,40.8,30.69,NW,321,9.0,17.0,74,0.00,,,0.04,Weather View 32 v70,2013-04-04 22:06:00,
2013-04-04 17:12:00,48.8,40.9,30.69,NNE,28,10.0,17.0,74,0.00,,,0.04,Weather View 32 v70,2013-04-04 22:12:00,
2013-04-04 17:17:00,49.3,42.0,30.69,NW,321,8.0,17.0,76,0.00,,,0.04,Weather View 32 v70,2013-04-04 22:17:00,
2013-04-04 17:22:00,49.2,41.3,30.69,NW,321,9.0,17.0,74,0.00,,,0.04,Weather View 32 v70,2013-04-04 22:22:00,
2013-04-04 17:27:00,49.1,41.5,30.69,NW,321,7.0,17.0,75,0.00,,,0.04,Weather View 32 v70,2013-04-04 22:27:00,
2013-04-04 17:32:00,48.8,40.5,30.69,NNW,343,12.0,17.0,73,0.00,,,0.04,Weather View 32 v70,2013-04-04 22:32:00,
2013-04-04 17:37:00,49.3,41.3,30.69,NNW,343,9.0,18.0,74,0.00,,,0.04,Weather View 32 v70,2013-04-04 22:37:00,
2013-04-04 17:42:00,49.3,41.3,30.69,North,6,6.0,18.0,74,0.00,,,0.04,Weather View 32 v70,2013-04-04 22:42:00,
2013-04-04 18:07:00,49.5,41.2,30.69,NW,321,9.0,18.0,73,0.00,,,0.04,Weather View 32 v70,2013-04-04 23:07:00,
2013-04-04 18:12:00,49.4,41.1,30.69,NNW,343,10.0,18.0,73,0.00,,,0.04,Weather View 32 v70,2013-04-04 23:12:00,
2013-04-04 18:17:00,49.1,40.8,30.69,NW,321,10.0,18.0,73,0.00,,,0.04,Weather View 32 v70,2013-04-04 23:17:00,
2013-04-04 18:22:00,49.3,41.0,30.70,NW,321,9.0,18.0,73,0.00,,,0.04,Weather View 32 v70,2013-04-04 23:22:00,
2013-04-04 18:27:00,49.5,41.2,30.70,NW,321,7.0,18.0,73,0.00,,,0.04,Weather View 32 v70,2013-04-04 23:27:00,
2013-04-04 18:32:00,49.6,41.3,30.70,NW,321,8.0,18.0,73,0.00,,,0.04,Weather View 32 v70,2013-04-04 23:32:00,
2013-04-04 18:37:00,49.7,41.7,30.69,NW,321,9.0,18.0,74,0.00,,,0.04,Weather View 32 v70,2013-04-04 23:37:00,
2013-04-04 18:42:00,49.7,41.7,30.69,NNW,343,5.0,18.0,74,0.00,,,0.04,Weather View 32 v70,2013-04-04 23:42:00,
2013-04-04 18:47:00,49.7,41.7,30.69,NW,321,7.0,18.0,74,0.00,,,0.04,Weather View 32 v70,2013-04-04 23:47:00,
2013-04-04 18:52:00,49.7,41.7,30.69,NW,321,6.0,16.0,74,0.00,,,0.04,Weather View 32 v70,2013-04-04 23:52:00,
2013-04-04 18:57:00,49.7,41.7,30.69,NW,321,8.0,14.0,74,0.00,,,0.04,Weather View 32 v70,2013-04-04 23:57:00,
2013-04-04 19:02:00,49.8,41.8,30.69,WNW,298,7.0,13.0,74,0.00,,,0.04,Weather View 32 v70,2013-04-05 00:02:00,
2013-04-04 19:07:00,49.8,41.5,30.69,NW,321,8.0,13.0,73,0.00,,,0.04,Weather View 32 v70,2013-04-05 00:07:00,
2013-04-04 19:37:00,50.0,42.0,30.69,WNW,298,6.0,14.0,74,0.00,,,0.04,Weather View 32 v70,2013-04-05 00:37:00,
2013-04-04 19:42:00,50.0,42.0,30.69,NW,321,6.0,14.0,74,0.00,,,0.04,Weather View 32 v70,2013-04-05 00:42:00,
2013-04-04 19:47:00,50.0,42.4,30.70,NW,321,9.0,14.0,75,0.00,,,0.04,Weather View 32 v70,2013-04-05 00:47:00,
2013-04-04 19:52:00,50.0,42.4,30.70,WNW,298,4.0,14.0,75,0.00,,,0.04,Weather View 32 v70,2013-04-05 00:52:00,
2013-04-04 19:57:00,50.0,42.4,30.69,WNW,298,6.0,14.0,75,0.00,,,0.04,Weather View 32 v70,2013-04-05 00:57:00,
2013-04-04 20:02:00,50.0,42.4,30.70,NW,321,6.0,14.0,75,0.00,,,0.04,Weather View 32 v70,2013-04-05 01:02:00,
2013-04-04 20:07:00,50.0,42.4,30.70,WNW,298,5.0,14.0,75,0.00,,,0.04,Weather View 32 v70,2013-04-05 01:07:00,
2013-04-04 20:12:00,50.0,42.4,30.70,WNW,298,5.0,14.0,75,0.00,,,0.04,Weather View 32 v70,2013-04-05 01:12:00,
2013-04-04 20:38:00,50.2,42.9,30.71,NNW,343,7.0,12.0,76,0.00,,,0.04,Weather View 32 v70,2013-04-05 01:38:00,
2013-04-04 20:43:00,50.3,43.0,30.71,WNW,298,8.0,14.0,76,0.00,,,0.04,Weather View 32 v70,2013-04-05 01:43:00,
2013-04-04 21:08:00,50.5,42.9,30.72,NW,321,8.0,14.0,75,0.00,,,0.04,Weather View 32 v70,2013-04-05 02:08:00,
2013-04-04 21:13:00,50.6,42.6,30.72,NW,321,7.0,14.0,74,0.00,,,0.04,Weather View 32 v70,2013-04-05 02:13:00,
2013-04-04 21:18:00,50.6,42.6,30.72,NW,321,9.0,14.0,74,0.00,,,0.04,Weather View 32 v70,2013-04-05 02:18:00,
2013-04-04 21:23:00,50.5,42.5,30.72,NW,321,5.0,14.0,74,0.00,,,0.04,Weather View 32 v70,2013-04-05 02:23:00,
2013-04-04 21:28:00,50.5,42.2,30.72,North,6,10.0,14.0,73,0.00,,,0.04,Weather View 32 v70,2013-04-05 02:28:00,
2013-04-04 21:33:00,50.6,41.9,30.72,NW,321,11.0,14.0,72,0.00,,,0.04,Weather View 32 v70,2013-04-05 02:33:00,
2013-04-04 21:38:00,50.6,41.5,30.72,NNW,343,10.0,14.0,71,0.00,,,0.04,Weather View 32 v70,2013-04-05 02:38:00,
2013-04-04 21:43:00,50.6,41.9,30.73,NNW,343,9.0,14.0,72,0.00,,,0.04,Weather View 32 v70,2013-04-05 02:43:00,
2013-04-04 21:48:00,50.7,41.6,30.73,NW,321,8.0,14.0,71,0.00,,,0.04,Weather View 32 v70,2013-04-05 02:48:00,
2013-04-04 22:08:00,50.2,41.9,30.74,NW,321,4.0,14.0,73,0.00,,,0.04,Weather View 32 v70,2013-04-05 03:08:00,
2013-04-04 22:13:00,50.0,42.0,30.74,WNW,298,4.0,14.0,74,0.00,,,0.04,Weather View 32 v70,2013-04-05 03:13:00,
2013-04-04 22:18:00,50.0,42.0,30.74,NW,321,5.0,14.0,74,0.00,,,0.04,Weather View 32 v70,2013-04-05 03:18:00,
2013-04-04 22:38:00,49.4,42.5,30.75,NW,321,5.0,14.0,77,0.00,,,0.04,Weather View 32 v70,2013-04-05 03:38:00,
2013-04-04 22:44:00,49.5,42.6,30.75,NNW,343,5.0,12.0,77,0.00,,,0.04,Weather View 32 v70,2013-04-05 03:44:00,
2013-04-04 22:49:00,49.4,42.5,30.75,NW,321,5.0,11.0,77,0.00,,,0.04,Weather View 32 v70,2013-04-05 03:49:00,
2013-04-04 23:09:00,49.2,42.3,30.75,NW,321,4.0,9.0,77,0.00,,,0.04,Weather View 32 v70,2013-04-05 04:09:00,
2013-04-04 23:39:00,49.1,42.5,30.75,WNW,298,5.0,9.0,78,0.00,,,0.04,Weather View 32 v70,2013-04-05 04:39:00,
2013-04-04 23:44:00,48.8,42.2,30.75,WNW,298,5.0,9.0,78,0.00,,,0.04,Weather View 32 v70,2013-04-05 04:44:00,